首页
METAR-TAF:

METAR-TAF

机场 :

Rochester International Airport

羅徹斯特, 明尼蘇達州, 美国

纬度: 43-54-15N, 经度: 092-29-30W, 海拔: 401米

当前天气观测

该预报发布于12分钟前的06:54 UTC
风速5节,风向西转西南
温度 6°C
湿度 87%
气压 1009 hPa
能見度: 16.1公里
天空无云

METAR: KRST 200654Z AUTO 24005KT 10SM CLR 06/04 A2980 RMK AO2 SLP094 T00560044

时间: 02:06 (07:06 UTC)

预报

该预报发布于1小时和46分钟前的05:20 UTC
预报有效从20日的 06点(UTC)到 21日的 06点(UTC)
风速6节,风向
能見度: 10公里
天空无云
从 20日的 1600点(UTC)
风速10节,风向东南
能見度: 10公里
多云层高于25000英尺
从 20日的 1900点(UTC)
风速12节,风向东南
能見度: 10公里
阴天层高于13000英尺
从 21日的 0400点(UTC)
风速13节,风向东南
能見度: 10公里
阴天层高于7000英尺
小阵雨

TAF: KRST 200520Z 2006/2106 19006KT P6SM SKC FM201600 13010KT P6SM BKN250 FM201900 14012KT P6SM OVC130 FM210400 13013KT P6SM -SHRA OVC070

超过4000个机场的气象观测和天气预报(METAR&TAF报告)。

可查询的气象台以黄色和红色小点在地图上表示。

将鼠标移到小点上方,可查看气象台名称。

然后点击查看天气观测和预报。

如需切换地图:点击带黑十字的绿色按钮放大地图;点击带横线的绿色按钮缩小地图;或者点击绿色箭头查看邻近地区的地图。


METAR-TAF: